createdAt,value
2018-09-25T00:02:13.266Z,7.72
2018-09-25T00:04:47.952Z,7.68
2018-09-25T00:07:22.513Z,7.69
2018-09-25T00:09:57.243Z,7.64
2018-09-25T00:12:32.047Z,7.66
2018-09-25T00:15:06.769Z,7.60
2018-09-25T00:17:41.575Z,7.56
2018-09-25T00:20:16.155Z,7.60
2018-09-25T00:22:50.859Z,7.54
2018-09-25T00:25:26.163Z,7.55
2018-09-25T00:28:01.915Z,7.53
2018-09-25T00:30:36.751Z,7.54
2018-09-25T00:33:11.695Z,7.50
2018-09-25T00:35:46.319Z,7.47
2018-09-25T00:38:21.393Z,7.46
2018-09-25T00:40:56.061Z,7.41
2018-09-25T00:43:31.033Z,7.40
2018-09-25T00:46:05.692Z,7.33
2018-09-25T00:48:40.557Z,7.24
2018-09-25T00:51:15.523Z,7.21
2018-09-25T00:53:50.312Z,7.23
2018-09-25T00:56:25.219Z,7.21
2018-09-25T00:59:00.108Z,7.09
2018-09-25T01:01:34.811Z,6.97
2018-09-25T01:04:09.551Z,6.92
2018-09-25T01:06:44.497Z,6.83
2018-09-25T01:09:19.268Z,6.82
2018-09-25T01:11:54.020Z,6.87
2018-09-25T01:14:29.010Z,6.84
2018-09-25T01:17:03.799Z,6.85
2018-09-25T01:19:38.704Z,6.87
2018-09-25T01:22:13.438Z,6.87
2018-09-25T01:24:48.328Z,6.88
2018-09-25T01:27:23.563Z,6.88
2018-09-25T01:29:58.676Z,6.90
2018-09-25T01:32:33.620Z,6.91
2018-09-25T01:35:08.805Z,6.88
2018-09-25T01:37:43.860Z,6.82
2018-09-25T01:40:19.238Z,6.73
2018-09-25T01:42:54.516Z,6.71
2018-09-25T01:45:29.667Z,6.72
2018-09-25T01:48:04.538Z,6.74
2018-09-25T01:50:39.147Z,6.67
2018-09-25T01:53:14.023Z,6.66
2018-09-25T01:55:49.280Z,6.63
2018-09-25T01:58:24.263Z,6.64
2018-09-25T02:00:59.138Z,6.66
2018-09-25T02:03:33.872Z,6.69
2018-09-25T02:06:08.697Z,6.64
2018-09-25T02:08:43.683Z,6.61
2018-09-25T02:11:18.863Z,6.58
2018-09-25T02:13:53.817Z,6.56
2018-09-25T02:16:28.798Z,6.57
2018-09-25T02:19:03.518Z,6.57
2018-09-25T02:21:38.367Z,6.56
2018-09-25T02:24:13.363Z,6.54
2018-09-25T02:26:48.251Z,6.55
2018-09-25T02:29:23.347Z,6.50
2018-09-25T02:31:58.502Z,6.48
2018-09-25T02:34:33.616Z,6.42
2018-09-25T02:37:08.643Z,6.41
2018-09-25T02:39:43.733Z,6.39
2018-09-25T02:42:18.752Z,6.39
2018-09-25T02:44:53.771Z,6.41
2018-09-25T02:47:28.835Z,6.40
2018-09-25T02:50:03.840Z,6.39
2018-09-25T02:52:38.959Z,6.36
2018-09-25T02:55:13.983Z,6.34
2018-09-25T02:57:48.893Z,6.27
2018-09-25T03:00:23.718Z,6.24
2018-09-25T03:02:58.927Z,6.25
2018-09-25T03:05:33.779Z,6.27
2018-09-25T03:08:08.695Z,6.21
2018-09-25T03:10:43.761Z,6.06
2018-09-25T03:13:18.700Z,5.99
2018-09-25T03:15:53.670Z,5.94
2018-09-25T03:18:28.655Z,5.91
2018-09-25T03:21:03.831Z,5.94
2018-09-25T03:23:38.931Z,5.96
2018-09-25T03:26:14.480Z,5.87
2018-09-25T03:28:49.902Z,5.87
2018-09-25T03:31:24.747Z,5.81
2018-09-25T03:33:59.603Z,5.75
2018-09-25T03:36:34.435Z,5.72
2018-09-25T03:39:10.391Z,5.71
2018-09-25T03:41:45.328Z,5.74
2018-09-25T03:44:20.508Z,5.78
2018-09-25T03:46:55.514Z,5.85
2018-09-25T03:49:30.571Z,5.87
2018-09-25T03:52:05.480Z,5.88
2018-09-25T03:54:40.584Z,5.94
2018-09-25T03:57:15.779Z,6.00
2018-09-25T03:59:50.784Z,5.99
2018-09-25T04:02:25.672Z,6.01
2018-09-25T04:05:00.803Z,6.04
2018-09-25T04:07:35.916Z,6.01
2018-09-25T04:10:11.055Z,6.00
2018-09-25T04:12:46.177Z,5.97
2018-09-25T04:15:21.063Z,5.93
2018-09-25T04:17:55.959Z,5.89
2018-09-25T04:20:31.115Z,5.87
2018-09-25T04:23:06.597Z,5.84
2018-09-25T04:25:41.664Z,5.85
2018-09-25T04:28:16.887Z,5.78
2018-09-25T04:30:52.107Z,5.79
2018-09-25T04:33:26.938Z,5.77
2018-09-25T04:36:01.914Z,5.79
2018-09-25T04:38:37.095Z,5.77
2018-09-25T04:41:12.146Z,5.73
2018-09-25T04:43:47.172Z,5.74
2018-09-25T04:46:22.139Z,5.76
2018-09-25T04:48:57.203Z,5.76
2018-09-25T04:51:32.008Z,5.68
2018-09-25T04:54:06.945Z,5.65
2018-09-25T04:56:42.101Z,5.65
2018-09-25T04:59:17.167Z,5.61
2018-09-25T05:01:52.234Z,5.58
2018-09-25T05:04:27.080Z,5.55
2018-09-25T05:07:02.342Z,5.53
2018-09-25T05:09:37.742Z,5.53
2018-09-25T05:12:12.926Z,5.51
2018-09-25T05:14:48.240Z,5.49
2018-09-25T05:17:23.187Z,5.48
2018-09-25T05:19:58.073Z,5.47
2018-09-25T05:22:32.972Z,5.45
2018-09-25T05:25:07.838Z,5.45
2018-09-25T05:27:42.928Z,5.45
2018-09-25T05:30:17.922Z,5.47
2018-09-25T05:32:52.852Z,5.51
2018-09-25T05:35:27.924Z,5.59
2018-09-25T05:38:02.834Z,5.66
2018-09-25T05:40:38.229Z,5.77
2018-09-25T05:43:13.583Z,5.92
2018-09-25T05:45:48.455Z,6.03
2018-09-25T05:48:23.438Z,6.21
2018-09-25T05:50:58.719Z,6.36
2018-09-25T05:53:33.812Z,6.50
2018-09-25T05:56:08.695Z,6.64
2018-09-25T05:58:43.711Z,6.85
2018-09-25T06:01:18.671Z,7.02
2018-09-25T06:03:53.687Z,7.20
2018-09-25T06:06:28.548Z,7.33
2018-09-25T06:09:03.704Z,7.51
2018-09-25T06:11:40.092Z,7.68
2018-09-25T06:14:15.129Z,7.89
2018-09-25T06:16:49.907Z,8.03
2018-09-25T06:19:24.627Z,8.17
2018-09-25T06:21:59.680Z,8.36
2018-09-25T06:24:34.412Z,8.47
2018-09-25T06:27:09.159Z,8.56
2018-09-25T06:29:43.907Z,8.62
2018-09-25T06:32:19.132Z,8.89
2018-09-25T06:34:53.930Z,9.09
2018-09-25T06:37:29.139Z,9.33
2018-09-25T06:40:09.962Z,9.56
2018-09-25T06:42:44.615Z,9.82
2018-09-25T06:45:19.497Z,10.01
2018-09-25T06:47:54.112Z,10.16
2018-09-25T06:50:28.854Z,10.35
2018-09-25T06:53:03.568Z,10.47
2018-09-25T06:55:38.260Z,10.76
2018-09-25T06:58:12.880Z,11.02
2018-09-25T07:00:47.600Z,11.24
2018-09-25T07:03:22.362Z,11.37
2018-09-25T07:05:58.233Z,11.49
2018-09-25T07:08:32.968Z,11.66
2018-09-25T07:11:07.831Z,11.76
2018-09-25T07:13:42.493Z,11.88
2018-09-25T07:16:17.166Z,12.10
2018-09-25T07:18:51.956Z,12.30
2018-09-25T07:21:26.774Z,12.46
2018-09-25T07:24:01.421Z,12.67
2018-09-25T07:26:36.340Z,12.88
2018-09-25T07:29:10.920Z,12.97
2018-09-25T07:31:45.608Z,13.09
2018-09-25T07:34:20.364Z,13.27
2018-09-25T07:36:55.027Z,13.52
2018-09-25T07:39:29.944Z,13.67
2018-09-25T07:42:04.714Z,13.72
2018-09-25T07:44:39.556Z,13.78
2018-09-25T07:47:14.380Z,13.78
2018-09-25T07:49:49.276Z,14.04
2018-09-25T07:52:24.104Z,14.24
2018-09-25T07:54:58.925Z,14.29
2018-09-25T07:57:33.584Z,14.38
2018-09-25T08:00:08.669Z,14.35
2018-09-25T08:02:43.672Z,14.58
2018-09-25T08:05:19.232Z,14.49
2018-09-25T08:07:53.900Z,14.70
2018-09-25T08:10:28.865Z,15.08
2018-09-25T08:13:03.702Z,15.27
2018-09-25T08:15:38.523Z,15.29
2018-09-25T08:18:13.211Z,15.41
2018-09-25T08:20:48.104Z,15.68
2018-09-25T08:23:23.019Z,15.67
2018-09-25T08:25:58.575Z,15.47
2018-09-25T08:28:33.808Z,15.42
2018-09-25T08:31:11.231Z,15.52
2018-09-25T08:33:46.004Z,15.66
2018-09-25T08:36:22.724Z,15.53
2018-09-25T08:38:57.981Z,15.47
2018-09-25T08:41:33.094Z,15.69
2018-09-25T08:44:08.282Z,15.58
2018-09-25T08:46:43.933Z,15.67
2018-09-25T08:49:19.172Z,15.86
2018-09-25T08:51:54.228Z,15.72
2018-09-25T08:54:29.211Z,15.73
2018-09-25T08:57:03.991Z,15.83
2018-09-25T08:59:38.988Z,15.81
2018-09-25T09:02:14.155Z,15.68
2018-09-25T09:04:49.005Z,15.93
2018-09-25T09:07:23.937Z,15.93
2018-09-25T09:09:58.680Z,16.00
2018-09-25T09:12:33.511Z,16.00
2018-09-25T09:15:08.244Z,15.78
2018-09-25T09:17:43.376Z,15.76
2018-09-25T09:20:18.229Z,15.63
2018-09-25T09:22:53.275Z,15.47
2018-09-25T09:25:28.000Z,15.16
2018-09-25T09:28:02.748Z,15.52
2018-09-25T09:30:37.578Z,15.77
2018-09-25T09:33:12.791Z,15.86
2018-09-25T09:35:47.540Z,15.90
2018-09-25T09:38:22.382Z,15.99
2018-09-25T09:40:57.280Z,15.98
2018-09-25T09:43:32.535Z,16.16
2018-09-25T09:46:07.262Z,16.07
2018-09-25T09:48:42.094Z,16.10
2018-09-25T09:51:16.859Z,15.95
2018-09-25T09:53:51.556Z,16.11
2018-09-25T09:56:26.304Z,15.71
2018-09-25T09:59:01.245Z,15.62
2018-09-25T10:01:35.973Z,15.77
2018-09-25T10:04:10.675Z,15.84
2018-09-25T10:06:45.733Z,15.48
2018-09-25T10:09:20.508Z,15.41
2018-09-25T10:11:55.068Z,15.53
2018-09-25T10:14:29.877Z,15.53
2018-09-25T10:17:04.484Z,15.53
2018-09-25T10:19:39.271Z,15.39
2018-09-25T10:22:13.995Z,14.97
2018-09-25T10:24:48.843Z,15.21
2018-09-25T10:27:23.617Z,15.45
2018-09-25T10:29:58.544Z,15.62
2018-09-25T10:32:33.569Z,15.67
2018-09-25T10:35:08.299Z,15.83
2018-09-25T10:37:43.134Z,15.91
2018-09-25T10:40:17.969Z,15.91
2018-09-25T10:42:52.790Z,15.85
2018-09-25T10:45:27.795Z,15.93
2018-09-25T10:48:02.355Z,16.05
2018-09-25T10:50:37.182Z,16.02
2018-09-25T10:53:11.846Z,15.79
2018-09-25T10:55:46.994Z,15.81
2018-09-25T10:58:21.863Z,15.72
2018-09-25T11:00:56.719Z,15.76
2018-09-25T11:03:31.512Z,15.92
2018-09-25T11:06:06.520Z,16.07
2018-09-25T11:08:41.268Z,15.81
2018-09-25T11:11:16.535Z,15.60
2018-09-25T11:13:51.284Z,15.72
2018-09-25T11:16:25.987Z,15.79
2018-09-25T11:19:00.755Z,15.63
2018-09-25T11:21:35.384Z,15.42
2018-09-25T11:24:10.116Z,15.49
2018-09-25T11:26:45.172Z,15.32
2018-09-25T11:29:19.971Z,15.34
2018-09-25T11:31:54.721Z,15.41
2018-09-25T11:34:29.309Z,15.48
2018-09-25T11:37:04.291Z,15.40
2018-09-25T11:39:39.001Z,15.51
2018-09-25T11:42:13.858Z,15.61
2018-09-25T11:44:48.755Z,15.75
2018-09-25T11:47:23.554Z,15.88
2018-09-25T11:49:58.102Z,15.91
2018-09-25T11:52:32.988Z,15.96
2018-09-25T11:55:07.871Z,15.93
2018-09-25T11:57:42.676Z,15.98
2018-09-25T12:00:17.376Z,16.01
2018-09-25T12:02:52.115Z,15.89
2018-09-25T12:05:26.773Z,15.77
2018-09-25T12:08:01.563Z,15.78
2018-09-25T12:10:36.295Z,15.79
2018-09-25T12:13:10.979Z,15.92
2018-09-25T12:15:45.932Z,15.93
2018-09-25T12:18:20.688Z,16.00
2018-09-25T12:20:55.285Z,16.03
2018-09-25T12:23:29.939Z,16.06
2018-09-25T12:26:04.847Z,15.99
2018-09-25T12:28:39.740Z,16.09
2018-09-25T12:31:14.552Z,16.03
2018-09-25T12:33:49.436Z,16.05
2018-09-25T12:36:24.334Z,16.10
2018-09-25T12:38:59.572Z,16.13
2018-09-25T12:41:34.716Z,16.06
2018-09-25T12:44:09.912Z,16.09
2018-09-25T12:46:44.632Z,16.06
2018-09-25T12:49:19.371Z,15.96
2018-09-25T12:51:54.116Z,16.02
2018-09-25T12:54:28.925Z,16.07
2018-09-25T12:57:03.768Z,16.11
2018-09-25T12:59:38.587Z,16.12
2018-09-25T13:02:13.851Z,16.17
2018-09-25T13:04:48.503Z,16.22
2018-09-25T13:07:23.363Z,16.29
2018-09-25T13:09:58.360Z,16.22
2018-09-25T13:12:33.147Z,16.15
2018-09-25T13:15:07.828Z,16.09
2018-09-25T13:17:42.534Z,15.93
2018-09-25T13:20:17.259Z,16.01
2018-09-25T13:22:52.088Z,15.98
2018-09-25T13:25:27.038Z,16.01
2018-09-25T13:28:01.769Z,16.06
2018-09-25T13:30:36.540Z,16.06
2018-09-25T13:33:11.652Z,15.85
2018-09-25T13:35:46.646Z,16.00
2018-09-25T13:38:21.287Z,16.09
2018-09-25T13:40:55.843Z,16.03
2018-09-25T13:43:30.679Z,15.97
2018-09-25T13:46:05.419Z,15.96
2018-09-25T13:48:40.026Z,15.87
2018-09-25T13:51:14.751Z,15.72
2018-09-25T13:53:49.412Z,15.77
2018-09-25T13:56:24.481Z,15.79
2018-09-25T13:58:59.480Z,15.77
2018-09-25T14:01:34.151Z,15.79
2018-09-25T14:04:08.975Z,15.71
2018-09-25T14:06:43.588Z,15.74
2018-09-25T14:09:18.265Z,15.83
2018-09-25T14:11:53.163Z,15.93
2018-09-25T14:14:27.751Z,15.93
2018-09-25T14:17:02.351Z,16.02
2018-09-25T14:19:37.236Z,16.05
2018-09-25T14:22:12.105Z,16.03
2018-09-25T14:24:46.831Z,16.07
2018-09-25T14:27:21.900Z,16.00
2018-09-25T14:29:56.667Z,15.85
2018-09-25T14:32:31.336Z,15.92
2018-09-25T14:35:06.048Z,15.94
2018-09-25T14:37:40.752Z,15.81
2018-09-25T14:40:15.468Z,15.90
2018-09-25T14:42:50.250Z,15.93
2018-09-25T14:45:24.911Z,15.95
2018-09-25T14:47:59.713Z,15.90
2018-09-25T14:50:34.411Z,15.85
2018-09-25T14:53:09.446Z,15.84
2018-09-25T14:55:44.216Z,15.81
2018-09-25T14:58:18.972Z,15.79
2018-09-25T15:00:53.942Z,15.80
2018-09-25T15:03:28.803Z,15.82
2018-09-25T15:06:03.808Z,15.81
2018-09-25T15:08:38.767Z,15.71
2018-09-25T15:11:13.418Z,15.72
2018-09-25T15:13:48.332Z,15.68
2018-09-25T15:16:22.905Z,15.69
2018-09-25T15:18:57.582Z,15.71
2018-09-25T15:21:32.383Z,15.63
2018-09-25T15:24:07.088Z,15.57
2018-09-25T15:26:41.848Z,15.47
2018-09-25T15:29:16.839Z,15.51
2018-09-25T15:31:51.388Z,15.44
2018-09-25T15:34:26.334Z,15.44
2018-09-25T15:37:00.960Z,15.30
2018-09-25T15:39:35.727Z,15.30
2018-09-25T15:42:10.672Z,15.32
2018-09-25T15:44:45.507Z,15.28
2018-09-25T15:47:20.249Z,15.24
2018-09-25T15:49:54.952Z,15.16
2018-09-25T15:52:30.126Z,15.23
2018-09-25T15:55:04.849Z,15.24
2018-09-25T15:57:39.765Z,15.28
2018-09-25T16:00:14.557Z,15.29
2018-09-25T16:02:49.472Z,15.28
2018-09-25T16:05:24.136Z,15.31
2018-09-25T16:07:58.880Z,15.24
2018-09-25T16:10:33.684Z,15.17
2018-09-25T16:13:08.555Z,15.06
2018-09-25T16:15:43.195Z,15.07
2018-09-25T16:18:18.409Z,15.09
2018-09-25T16:20:53.524Z,15.04
2018-09-25T16:23:28.205Z,14.96
2018-09-25T16:26:03.369Z,15.05
2018-09-25T16:28:38.139Z,15.03
2018-09-25T16:31:12.800Z,14.97
2018-09-25T16:33:47.653Z,14.88
2018-09-25T16:36:22.665Z,14.78
2018-09-25T16:38:57.596Z,14.70
2018-09-25T16:41:32.253Z,14.68
2018-09-25T16:44:07.536Z,14.61
2018-09-25T16:46:42.128Z,14.52
2018-09-25T16:49:16.868Z,14.43
2018-09-25T16:51:51.613Z,14.40
2018-09-25T16:54:26.356Z,14.35
2018-09-25T16:57:01.147Z,14.24
2018-09-25T16:59:36.185Z,14.16
2018-09-25T17:02:11.292Z,14.12
2018-09-25T17:04:46.163Z,14.04
2018-09-25T17:07:20.760Z,14.00
2018-09-25T17:09:55.432Z,13.96
2018-09-25T17:12:30.204Z,13.89
2018-09-25T17:15:05.195Z,13.82
2018-09-25T17:17:41.255Z,13.74
2018-09-25T17:20:16.107Z,13.72
2018-09-25T17:22:50.991Z,13.66
2018-09-25T17:25:26.182Z,13.65
2018-09-25T17:28:01.107Z,13.58
2018-09-25T17:30:35.816Z,13.48
2018-09-25T17:33:10.532Z,13.40
2018-09-25T17:35:45.299Z,13.32
2018-09-25T17:38:19.863Z,13.26
2018-09-25T17:40:54.745Z,13.26
2018-09-25T17:43:29.628Z,13.21
2018-09-25T17:46:04.761Z,13.12
2018-09-25T17:48:47.464Z,12.98
2018-09-25T17:51:22.622Z,12.87
2018-09-25T17:53:57.217Z,12.78
2018-09-25T17:56:32.182Z,12.67
2018-09-25T17:59:06.924Z,12.63
2018-09-25T18:01:42.020Z,12.60
2018-09-25T18:04:16.904Z,12.53
2018-09-25T18:06:51.775Z,12.47
2018-09-25T18:09:26.780Z,12.38
2018-09-25T18:12:01.404Z,12.29
2018-09-25T18:14:36.086Z,12.22
2018-09-25T18:17:11.039Z,12.10
2018-09-25T18:19:46.285Z,12.05
2018-09-25T18:22:21.235Z,11.98
2018-09-25T18:24:56.245Z,11.93
2018-09-25T18:27:30.951Z,11.87
2018-09-25T18:30:05.728Z,11.84
2018-09-25T18:32:40.468Z,11.75
2018-09-25T18:35:15.314Z,11.64
2018-09-25T18:37:50.068Z,11.56
2018-09-25T18:40:24.615Z,11.46
2018-09-25T18:42:59.460Z,11.35
2018-09-25T18:45:34.245Z,11.24
2018-09-25T18:48:09.127Z,11.23
2018-09-25T18:50:44.602Z,11.21
2018-09-25T18:53:19.609Z,11.25
2018-09-25T18:55:54.498Z,11.22
2018-09-25T18:58:29.172Z,11.17
2018-09-25T19:01:04.187Z,11.14
2018-09-25T19:03:38.905Z,11.07
2018-09-25T19:06:13.676Z,10.98
2018-09-25T19:08:48.404Z,10.89
2018-09-25T19:11:23.637Z,10.85
2018-09-25T19:13:58.412Z,10.72
2018-09-25T19:16:33.214Z,10.71
2018-09-25T19:19:08.236Z,10.68
2018-09-25T19:21:43.347Z,10.59
2018-09-25T19:24:17.971Z,10.53
2018-09-25T19:26:52.752Z,10.46
2018-09-25T19:29:27.581Z,10.40
2018-09-25T19:32:02.438Z,10.34
2018-09-25T19:34:37.349Z,10.32
2018-09-25T19:37:12.676Z,10.28
2018-09-25T19:39:47.425Z,10.22
2018-09-25T19:42:22.423Z,10.21
2018-09-25T19:44:57.352Z,10.24
2018-09-25T19:47:31.996Z,10.31
2018-09-25T19:50:06.840Z,10.31
2018-09-25T19:52:41.720Z,10.13
2018-09-25T19:55:16.583Z,9.93
2018-09-25T19:57:51.298Z,9.88
2018-09-25T20:00:26.129Z,9.80
2018-09-25T20:03:00.855Z,9.83
2018-09-25T20:05:35.613Z,9.73
2018-09-25T20:08:10.492Z,9.62
2018-09-25T20:10:45.307Z,9.69
2018-09-25T20:13:20.153Z,9.65
2018-09-25T20:15:55.115Z,9.65
2018-09-25T20:18:30.091Z,9.54
2018-09-25T20:21:04.893Z,9.60
2018-09-25T20:23:39.721Z,9.58
2018-09-25T20:26:14.375Z,9.47
2018-09-25T20:28:49.162Z,9.42
2018-09-25T20:31:23.917Z,9.44
2018-09-25T20:33:58.570Z,9.48
2018-09-25T20:36:33.180Z,9.53
2018-09-25T20:39:07.829Z,9.64
2018-09-25T20:41:42.731Z,9.70
2018-09-25T20:44:17.541Z,9.86
2018-09-25T20:46:52.185Z,9.80
2018-09-25T20:49:26.951Z,9.75
2018-09-25T20:52:01.874Z,9.70
2018-09-25T20:54:36.892Z,9.64
2018-09-25T20:57:12.151Z,9.56
2018-09-25T20:59:47.015Z,9.50
2018-09-25T21:02:21.915Z,9.41
2018-09-25T21:04:56.535Z,9.39
2018-09-25T21:07:31.191Z,9.35
2018-09-25T21:10:05.935Z,9.36
2018-09-25T21:12:40.989Z,9.30
2018-09-25T21:15:16.311Z,9.24
2018-09-25T21:17:51.239Z,9.25
2018-09-25T21:20:26.071Z,9.21
2018-09-25T21:23:00.813Z,9.17
2018-09-25T21:25:35.927Z,9.12
2018-09-25T21:28:10.580Z,9.14
2018-09-25T21:30:45.317Z,9.14
2018-09-25T21:33:20.150Z,9.09
2018-09-25T21:35:55.079Z,9.02
2018-09-25T21:38:29.851Z,9.03
2018-09-25T21:41:04.588Z,9.03
2018-09-25T21:43:39.282Z,8.94
2018-09-25T21:46:14.549Z,8.86
2018-09-25T21:48:49.435Z,8.85
2018-09-25T21:51:24.489Z,8.72
2018-09-25T21:53:59.284Z,8.66
2018-09-25T21:56:33.932Z,8.62
2018-09-25T21:59:08.732Z,8.58
2018-09-25T22:01:43.468Z,8.51
2018-09-25T22:04:18.057Z,8.44
2018-09-25T22:06:52.671Z,8.43
2018-09-25T22:09:27.400Z,8.40
2018-09-25T22:12:02.181Z,8.38
2018-09-25T22:14:36.956Z,8.30
2018-09-25T22:17:11.787Z,8.21
2018-09-25T22:19:46.435Z,8.14
2018-09-25T22:22:21.001Z,8.07
2018-09-25T22:24:55.711Z,7.96
2018-09-25T22:27:30.603Z,7.86
2018-09-25T22:30:05.256Z,7.81
2018-09-25T22:32:40.045Z,7.74
2018-09-25T22:35:15.055Z,7.71
2018-09-25T22:37:50.121Z,7.67
2018-09-25T22:40:24.748Z,7.67
2018-09-25T22:42:59.303Z,7.65
2018-09-25T22:45:34.023Z,7.62
2018-09-25T22:48:08.669Z,7.62
2018-09-25T22:50:43.671Z,7.65
2018-09-25T22:53:18.621Z,7.61
2018-09-25T22:55:53.472Z,7.59
2018-09-25T22:58:28.248Z,7.51
2018-09-25T23:01:02.899Z,7.51
2018-09-25T23:03:37.564Z,7.48
2018-09-25T23:06:12.685Z,7.49
2018-09-25T23:08:47.454Z,7.54
2018-09-25T23:11:22.216Z,7.44
2018-09-25T23:13:57.212Z,7.42
2018-09-25T23:16:31.859Z,7.38
2018-09-25T23:19:06.824Z,7.39
2018-09-25T23:21:42.786Z,7.35
2018-09-25T23:24:17.702Z,7.31
2018-09-25T23:26:52.340Z,7.22
2018-09-25T23:29:27.208Z,7.25
2018-09-25T23:32:02.161Z,7.22
2018-09-25T23:34:36.975Z,7.18
2018-09-25T23:37:11.882Z,7.15
2018-09-25T23:39:52.552Z,7.15
2018-09-25T23:42:36.215Z,7.11
2018-09-25T23:45:11.044Z,7.05
2018-09-25T23:47:49.592Z,7.08
2018-09-25T23:50:24.699Z,7.05
2018-09-25T23:53:01.229Z,7.09
2018-09-25T23:55:41.824Z,7.09
2018-09-25T23:58:16.054Z,7.08
